| time (UTC) | temp F | wind direction | speed knots | gust knots | rain 1hr in | rain 24hr in | rain mn in | humidity % | barometer mb |
| 20260507153042 | 60 | 350 | 5.2 | 16.5 | 0.00 | 0.33 | 0.01 | 48 | 1007.0 |
| 20260507151540 | 59 | 221 | 6.1 | 16.5 | 0.00 | 0.33 | 0.01 | 52 | 1007.1 |
| 20260507150044 | 58 | 226 | 4.3 | 9.6 | 0.00 | 0.33 | 0.01 | 61 | 1007.2 |
| 20260507144541 | 54 | 0 | 0.9 | 5.2 | 0.00 | 0.33 | 0.01 | 68 | 1007.2 |
| 20260507143045 | 55 | 306 | 2.6 | 11.3 | 0.00 | 0.33 | 0.01 | 68 | 1007.3 |
| 20260507141540 | 54 | 244 | 2.6 | 7.8 | 0.00 | 0.33 | 0.01 | 67 | 1007.2 |
| 20260507140044 | 54 | 267 | 1.7 | 7.0 | 0.00 | 0.33 | 0.01 | 70 | 1007.1 |
| 20260507134545 | 54 | 229 | 1.7 | 5.2 | 0.00 | 0.33 | 0.01 | 70 | 1007.3 |
| 20260507133048 | 54 | 221 | 2.6 | 8.7 | 0.00 | 0.33 | 0.01 | 70 | 1007.5 |
| 20260507131541 | 55 | 313 | 2.6 | 7.8 | 0.00 | 0.33 | 0.01 | 71 | 1007.6 |
| 20260507130043 | 54 | 304 | 3.5 | 10.4 | 0.01 | 0.33 | 0.01 | 73 | 1007.7 |
| 20260507124546 | 53 | 229 | 2.6 | 9.6 | 0.01 | 0.33 | 0.01 | 77 | 1007.6 |
| 20260507123042 | 52 | 237 | 3.5 | 8.7 | 0.01 | 0.33 | 0.01 | 78 | 1007.5 |
| 20260507121542 | 51 | 230 | 1.7 | 7.0 | 0.01 | 0.33 | 0.01 | 83 | 1007.6 |
| 20260507120041 | 49 | 343 | 1.7 | 7.8 | 0.00 | 0.32 | 0.00 | 86 | 1007.8 |
| 20260507114559 | 48 | 315 | 0.9 | 4.3 | 0.00 | 0.32 | 0.00 | 90 | 1007.7 |
| 20260507113101 | 47 | 5 | 0.9 | 6.1 | 0.00 | 0.32 | 0.00 | 92 | 1007.6 |
| 20260507111549 | 46 | 313 | 0.0 | 3.5 | 0.00 | 0.32 | 0.00 | 93 | 1007.6 |
| 20260507110047 | 45 | 249 | 0.9 | 4.3 | 0.00 | 0.32 | 0.00 | 93 | 1007.6 |
| 20260507104543 | 44 | 0 | 0.0 | 0.0 | 0.00 | 0.32 | 0.00 | 93 | 1007.1 |
| 20260507103049 | 45 | 0 | 0.0 | 1.7 | 0.00 | 0.32 | 0.00 | 92 | 1007.2 |
| 20260507101537 | 45 | 0 | 0.0 | 2.6 | 0.00 | 0.32 | 0.00 | 92 | 1007.3 |
| 20260507100045 | 46 | 0 | 0.0 | 1.7 | 0.00 | 0.32 | 0.00 | 92 | 1007.4 |
| 20260507094543 | 46 | 0 | 0.0 | 2.6 | 0.00 | 0.32 | 0.00 | 92 | 1007.1 |
| 20260507093041 | 46 | 0 | 0.0 | 3.5 | 0.00 | 0.32 | 0.00 | 91 | 1007.4 |
| 20260507091543 | 46 | 236 | 0.0 | 2.6 | 0.00 | 0.32 | 0.00 | 92 | 1007.5 |
| 20260507090041 | 46 | 236 | 1.7 | 7.0 | 0.00 | 0.32 | 0.00 | 92 | 1007.9 |
| 20260507084548 | 46 | 0 | 0.0 | 2.6 | 0.00 | 0.32 | 0.00 | 92 | 1007.0 |
| 20260507083045 | 47 | 0 | 0.0 | 2.6 | 0.00 | 0.32 | 0.00 | 92 | 1006.8 |
| 20260507081547 | 47 | 345 | 0.9 | 2.6 | 0.00 | 0.32 | 0.00 | 92 | 1007.0 |
| 20260507080044 | 47 | 0 | 0.0 | 2.6 | 0.00 | 0.32 | 0.00 | 92 | 1006.7 |
| 20260507074545 | 47 | 329 | 0.0 | 2.6 | 0.00 | 0.32 | 0.00 | 93 | 1007.0 |
| 20260507073046 | 47 | 0 | 0.9 | 2.6 | 0.00 | 0.32 | 0.00 | 92 | 1006.5 |
| 20260507071543 | 47 | 0 | 0.0 | 0.0 | 0.00 | 0.32 | 0.00 | 92 | 1006.6 |
| 20260507070045 | 47 | 0 | 0.0 | 1.7 | 0.00 | 0.32 | 0.00 | 92 | 1006.1 |
| 20260507064541 | 48 | 0 | 0.0 | 2.6 | 0.00 | 0.32 | 0.00 | 92 | 1006.4 |
| 20260507063043 | 48 | 233 | 1.7 | 6.1 | 0.00 | 0.32 | 0.00 | 92 | 1006.6 |
| 20260507061544 | 48 | 232 | 1.7 | 7.0 | 0.00 | 0.32 | 0.00 | 92 | 1006.7 |
| 20260507060044 | 48 | 277 | 1.7 | 4.3 | 0.00 | 0.32 | 0.00 | 93 | 1006.1 |
| 20260507054541 | 48 | 0 | 1.7 | 5.2 | 0.00 | 0.32 | 0.00 | 93 | 1006.5 |
| 20260507053041 | 48 | 0 | 0.9 | 6.1 | 0.00 | 0.32 | 0.00 | 93 | 1006.5 |
| 20260507051541 | 49 | 240 | 1.7 | 7.0 | 0.00 | 0.32 | 0.00 | 93 | 1006.4 |
| 20260507050047 | 49 | 293 | 0.0 | 3.5 | 0.00 | 0.32 | 0.00 | 93 | 1006.2 |
| 20260507044554 | 49 | 348 | 0.0 | 3.5 | 0.00 | 0.32 | 0.00 | 94 | 1006.2 |
| 20260507043055 | 50 | 0 | 0.0 | 8.7 | 0.00 | 0.32 | 0.00 | 94 | 1006.1 |
| 20260507041540 | 50 | 234 | 1.7 | 7.0 | 0.00 | 0.32 | 0.00 | 94 | 1006.6 |
| 20260507040041 | 51 | 0 | 0.9 | 4.3 | 0.00 | 0.32 | 0.00 | 94 | 1006.4 |
| 20260507034545 | 51 | 0 | 0.0 | 1.7 | 0.04 | 0.32 | 0.32 | 94 | 1006.2 |
| 20260507033043 | 51 | 0 | 0.0 | 0.9 | 0.04 | 0.32 | 0.32 | 94 | 1006.1 |
| 20260507031546 | 52 | 325 | 0.0 | 7.0 | 0.04 | 0.32 | 0.32 | 93 | 1006.2 |
| 20260507030042 | 52 | 0 | 0.0 | 7.0 | 0.03 | 0.31 | 0.31 | 93 | 1006.4 |
| 20260507024542 | 53 | 240 | 2.6 | 7.0 | 0.01 | 0.28 | 0.28 | 93 | 1006.2 |
| 20260507023043 | 54 | 244 | 1.7 | 11.3 | 0.04 | 0.28 | 0.28 | 93 | 1006.2 |
| 20260507021543 | 55 | 213 | 1.7 | 5.2 | 0.08 | 0.28 | 0.28 | 93 | 1005.6 |
| 20260507020050 | 56 | 258 | 1.7 | 7.0 | 0.14 | 0.28 | 0.28 | 94 | 1005.4 |
| 20260507014541 | 57 | 314 | 0.9 | 3.5 | 0.13 | 0.28 | 0.27 | 93 | 1004.9 |
| 20260507013040 | 57 | 0 | 0.0 | 8.7 | 0.09 | 0.24 | 0.23 | 93 | 1004.9 |
| 20260507011546 | 59 | 201 | 1.7 | 9.6 | 0.06 | 0.21 | 0.20 | 93 | 1004.8 |
| 20260507010046 | 60 | 0 | 0.0 | 1.7 | 0.00 | 0.15 | 0.14 | 94 | 1004.4 |
| 20260507004544 | 60 | 0 | 0.0 | 0.9 | 0.00 | 0.15 | 0.14 | 94 | 1004.3 |
| 20260507003040 | 60 | 0 | 0.0 | 0.0 | 0.00 | 0.15 | 0.14 | 94 | 1004.1 |
| 20260507001606 | 60 | 0 | 0.0 | 3.5 | 0.00 | 0.15 | 0.14 | 94 | 1004.2 |
| 20260507000043 | 60 | 0 | 0.0 | 0.0 | 0.00 | 0.15 | 0.14 | 94 | 1004.0 |
| 20260506234551 | 61 | 0 | 0.0 | 0.9 | 0.00 | 0.17 | 0.14 | 94 | 1003.8 |
| 20260506233043 | 61 | 0 | 0.0 | 4.3 | 0.00 | 0.17 | 0.14 | 94 | 1003.6 |
| 20260506231543 | 61 | 0 | 0.0 | 3.5 | 0.00 | 0.17 | 0.14 | 94 | 1003.8 |
| 20260506230053 | 61 | 0 | 0.0 | 4.3 | 0.00 | 0.17 | 0.14 | 94 | 1003.9 |
| 20260506224540 | 61 | 0 | 0.0 | 4.3 | 0.00 | 0.17 | 0.14 | 94 | 1003.8 |
| 20260506223041 | 61 | 0 | 0.0 | 3.5 | 0.00 | 0.17 | 0.14 | 94 | 1003.9 |
| 20260506221602 | 61 | 0 | 0.0 | 0.0 | 0.00 | 0.17 | 0.14 | 94 | 1004.0 |
| 20260506220043 | 62 | 0 | 0.0 | 4.3 | 0.00 | 0.17 | 0.14 | 94 | 1004.0 |
| 20260506214541 | 62 | 0 | 0.0 | 3.5 | 0.00 | 0.17 | 0.14 | 94 | 1004.0 |
| 20260506213040 | 62 | 0 | 0.9 | 4.3 | 0.00 | 0.17 | 0.14 | 94 | 1004.2 |
| 20260506211540 | 63 | 231 | 0.0 | 2.6 | 0.01 | 0.17 | 0.14 | 95 | 1004.3 |
| 20260506210051 | 63 | 175 | 0.0 | 2.6 | 0.03 | 0.17 | 0.14 | 94 | 1004.3 |
| 20260506204547 | 63 | 0 | 0.0 | 1.7 | 0.05 | 0.17 | 0.14 | 95 | 1004.5 |
| 20260506203043 | 63 | 0 | 0.9 | 4.3 | 0.06 | 0.17 | 0.14 | 94 | 1004.5 |
| 20260506201541 | 63 | 0 | 0.0 | 0.0 | 0.05 | 0.16 | 0.13 | 94 | 1004.5 |
| 20260506200040 | 63 | 0 | 0.0 | 1.7 | 0.04 | 0.14 | 0.11 | 94 | 1004.8 |
| 20260506194536 | 63 | 0 | 0.0 | 0.0 | 0.02 | 0.12 | 0.09 | 94 | 1004.9 |
| 20260506193048 | 63 | 0 | 0.0 | 0.0 | 0.02 | 0.11 | 0.08 | 94 | 1005.1 |
| 20260506191542 | 63 | 0 | 0.0 | 0.0 | 0.03 | 0.11 | 0.08 | 94 | 1005.0 |
| 20260506190040 | 63 | 0 | 0.0 | 0.0 | 0.03 | 0.10 | 0.07 | 93 | 1005.0 |
| 20260506184543 | 63 | 0 | 0.0 | 0.0 | 0.04 | 0.10 | 0.07 | 93 | 1005.5 |
| 20260506183045 | 63 | 0 | 0.0 | 0.0 | 0.05 | 0.09 | 0.06 | 92 | 1005.8 |
| 20260506181549 | 63 | 0 | 0.0 | 0.0 | 0.05 | 0.08 | 0.05 | 91 | 1005.9 |
| 20260506180040 | 63 | 0 | 0.0 | 0.0 | 0.04 | 0.07 | 0.04 | 90 | 1006.3 |
| 20260506174541 | 64 | 0 | 0.0 | 1.7 | 0.03 | 0.06 | 0.03 | 87 | 1006.4 |
| 20260506173041 | 65 | 0 | 0.0 | 5.2 | 0.01 | 0.04 | 0.01 | 83 | 1006.4 |
| 20260506171545 | 67 | 0 | 0.9 | 2.6 | 0.00 | 0.03 | 0.00 | 78 | 1006.2 |
| 20260506170052 | 69 | 225 | 1.7 | 7.0 | 0.00 | 0.03 | 0.00 | 70 | 1005.9 |
| 20260506164554 | 70 | 256 | 2.6 | 13.9 | 0.00 | 0.03 | 0.00 | 67 | 1005.9 |
| 20260506163045 | 70 | 227 | 1.7 | 6.1 | 0.00 | 0.03 | 0.00 | 67 | 1006.1 |
| 20260506161546 | 70 | 198 | 1.7 | 6.1 | 0.00 | 0.03 | 0.00 | 68 | 1006.4 |
| 20260506160055 | 69 | 0 | 0.0 | 3.5 | 0.00 | 0.03 | 0.00 | 70 | 1006.6 |
| 20260506154544 | 69 | 252 | 2.6 | 8.7 | 0.00 | 0.03 | 0.00 | 70 | 1006.9 |